sensor_id;sensor_type;location;lat;lon;timestamp;P1;durP1;ratioP1;P2;durP2;ratioP2
10461;SDS011;5278;42.656;23.374;2023-08-24T00:00:46;10.10;;;9.03;;
10461;SDS011;5278;42.656;23.374;2023-08-24T00:03:13;9.30;;;8.43;;
10461;SDS011;5278;42.656;23.374;2023-08-24T00:05:40;10.63;;;9.63;;
10461;SDS011;5278;42.656;23.374;2023-08-24T00:08:07;10.90;;;8.93;;
10461;SDS011;5278;42.656;23.374;2023-08-24T00:10:36;11.23;;;9.70;;
10461;SDS011;5278;42.656;23.374;2023-08-24T00:13:04;11.00;;;9.90;;
10461;SDS011;5278;42.656;23.374;2023-08-24T00:15:32;9.77;;;8.77;;
10461;SDS011;5278;42.656;23.374;2023-08-24T00:17:59;9.80;;;8.90;;
10461;SDS011;5278;42.656;23.374;2023-08-24T00:20:26;9.67;;;8.77;;
10461;SDS011;5278;42.656;23.374;2023-08-24T00:22:53;10.03;;;9.03;;
10461;SDS011;5278;42.656;23.374;2023-08-24T00:25:20;10.67;;;8.90;;
10461;SDS011;5278;42.656;23.374;2023-08-24T00:27:47;9.80;;;8.80;;
10461;SDS011;5278;42.656;23.374;2023-08-24T00:30:15;9.07;;;8.03;;
10461;SDS011;5278;42.656;23.374;2023-08-24T00:32:42;9.43;;;8.53;;
10461;SDS011;5278;42.656;23.374;2023-08-24T00:35:09;9.17;;;8.27;;
10461;SDS011;5278;42.656;23.374;2023-08-24T00:37:37;10.17;;;8.47;;
10461;SDS011;5278;42.656;23.374;2023-08-24T00:40:06;9.27;;;8.23;;
10461;SDS011;5278;42.656;23.374;2023-08-24T00:42:37;9.73;;;8.73;;
10461;SDS011;5278;42.656;23.374;2023-08-24T00:45:05;9.17;;;8.37;;
10461;SDS011;5278;42.656;23.374;2023-08-24T00:47:35;10.67;;;8.23;;
10461;SDS011;5278;42.656;23.374;2023-08-24T00:50:05;11.43;;;9.80;;
10461;SDS011;5278;42.656;23.374;2023-08-24T00:52:33;10.33;;;9.33;;
10461;SDS011;5278;42.656;23.374;2023-08-24T00:55:04;12.90;;;10.40;;
10461;SDS011;5278;42.656;23.374;2023-08-24T00:57:31;10.13;;;9.13;;
10461;SDS011;5278;42.656;23.374;2023-08-24T01:00:00;10.07;;;9.10;;
10461;SDS011;5278;42.656;23.374;2023-08-24T01:02:32;10.27;;;9.33;;
10461;SDS011;5278;42.656;23.374;2023-08-24T01:05:00;9.93;;;9.07;;
10461;SDS011;5278;42.656;23.374;2023-08-24T01:07:29;11.63;;;9.50;;
10461;SDS011;5278;42.656;23.374;2023-08-24T01:09:56;9.87;;;8.90;;
10461;SDS011;5278;42.656;23.374;2023-08-24T01:12:25;10.97;;;9.70;;
10461;SDS011;5278;42.656;23.374;2023-08-24T01:15:02;10.63;;;8.40;;
10461;SDS011;5278;42.656;23.374;2023-08-24T01:17:36;9.67;;;8.77;;
10461;SDS011;5278;42.656;23.374;2023-08-24T01:20:09;9.67;;;8.67;;
10461;SDS011;5278;42.656;23.374;2023-08-24T01:22:37;9.83;;;8.90;;
10461;SDS011;5278;42.656;23.374;2023-08-24T01:25:14;9.53;;;8.37;;
10461;SDS011;5278;42.656;23.374;2023-08-24T01:27:45;10.20;;;9.30;;
10461;SDS011;5278;42.656;23.374;2023-08-24T01:30:15;9.17;;;8.27;;
10461;SDS011;5278;42.656;23.374;2023-08-24T01:32:45;9.00;;;8.20;;
10461;SDS011;5278;42.656;23.374;2023-08-24T01:35:12;9.47;;;8.47;;
10461;SDS011;5278;42.656;23.374;2023-08-24T01:37:38;10.20;;;9.00;;
10461;SDS011;5278;42.656;23.374;2023-08-24T01:40:08;9.17;;;8.27;;
10461;SDS011;5278;42.656;23.374;2023-08-24T01:42:43;11.93;;;9.37;;
10461;SDS011;5278;42.656;23.374;2023-08-24T01:45:15;9.80;;;8.80;;
10461;SDS011;5278;42.656;23.374;2023-08-24T01:47:45;10.13;;;9.17;;
10461;SDS011;5278;42.656;23.374;2023-08-24T01:50:14;9.37;;;8.47;;
10461;SDS011;5278;42.656;23.374;2023-08-24T01:52:41;9.47;;;8.57;;
10461;SDS011;5278;42.656;23.374;2023-08-24T01:55:09;10.53;;;9.43;;
10461;SDS011;5278;42.656;23.374;2023-08-24T01:57:37;9.93;;;8.47;;
10461;SDS011;5278;42.656;23.374;2023-08-24T02:00:06;9.83;;;8.87;;
10461;SDS011;5278;42.656;23.374;2023-08-24T02:02:35;8.90;;;8.03;;
10461;SDS011;5278;42.656;23.374;2023-08-24T02:05:02;9.80;;;8.80;;
10461;SDS011;5278;42.656;23.374;2023-08-24T02:07:29;9.77;;;8.77;;
10461;SDS011;5278;42.656;23.374;2023-08-24T02:09:57;11.90;;;9.30;;
10461;SDS011;5278;42.656;23.374;2023-08-24T02:12:24;10.23;;;8.50;;
10461;SDS011;5278;42.656;23.374;2023-08-24T02:14:51;10.37;;;9.30;;
10461;SDS011;5278;42.656;23.374;2023-08-24T02:17:20;9.97;;;9.00;;
10461;SDS011;5278;42.656;23.374;2023-08-24T02:19:47;9.63;;;8.67;;
10461;SDS011;5278;42.656;23.374;2023-08-24T02:22:14;9.43;;;8.63;;
10461;SDS011;5278;42.656;23.374;2023-08-24T02:24:42;10.63;;;9.53;;
10461;SDS011;5278;42.656;23.374;2023-08-24T02:27:09;9.40;;;8.50;;
10461;SDS011;5278;42.656;23.374;2023-08-24T02:29:36;10.70;;;9.70;;
10461;SDS011;5278;42.656;23.374;2023-08-24T02:32:04;10.43;;;9.53;;
10461;SDS011;5278;42.656;23.374;2023-08-24T02:34:34;9.63;;;8.63;;
10461;SDS011;5278;42.656;23.374;2023-08-24T02:37:01;9.30;;;8.40;;
10461;SDS011;5278;42.656;23.374;2023-08-24T02:39:28;9.63;;;8.73;;
10461;SDS011;5278;42.656;23.374;2023-08-24T02:41:54;14.20;;;9.40;;
10461;SDS011;5278;42.656;23.374;2023-08-24T02:44:21;9.23;;;8.37;;
10461;SDS011;5278;42.656;23.374;2023-08-24T02:46:48;10.20;;;9.10;;
10461;SDS011;5278;42.656;23.374;2023-08-24T02:49:15;9.63;;;8.83;;
10461;SDS011;5278;42.656;23.374;2023-08-24T02:51:46;10.23;;;8.57;;
10461;SDS011;5278;42.656;23.374;2023-08-24T02:54:14;9.73;;;8.73;;
10461;SDS011;5278;42.656;23.374;2023-08-24T02:56:41;10.87;;;9.70;;
10461;SDS011;5278;42.656;23.374;2023-08-24T02:59:08;9.67;;;8.60;;
10461;SDS011;5278;42.656;23.374;2023-08-24T03:01:35;10.53;;;9.60;;
10461;SDS011;5278;42.656;23.374;2023-08-24T03:04:03;10.80;;;9.70;;
10461;SDS011;5278;42.656;23.374;2023-08-24T03:06:30;10.50;;;9.40;;
10461;SDS011;5278;42.656;23.374;2023-08-24T03:08:59;10.00;;;9.07;;
10461;SDS011;5278;42.656;23.374;2023-08-24T03:11:29;10.03;;;9.10;;
10461;SDS011;5278;42.656;23.374;2023-08-24T03:13:56;10.50;;;9.50;;
10461;SDS011;5278;42.656;23.374;2023-08-24T03:16:23;10.13;;;9.23;;
10461;SDS011;5278;42.656;23.374;2023-08-24T03:18:49;10.53;;;9.43;;
10461;SDS011;5278;42.656;23.374;2023-08-24T03:21:16;9.73;;;8.83;;
10461;SDS011;5278;42.656;23.374;2023-08-24T03:23:44;11.93;;;8.93;;
10461;SDS011;5278;42.656;23.374;2023-08-24T03:26:13;11.10;;;9.90;;
10461;SDS011;5278;42.656;23.374;2023-08-24T03:28:40;11.47;;;9.50;;
10461;SDS011;5278;42.656;23.374;2023-08-24T03:31:08;10.50;;;9.40;;
10461;SDS011;5278;42.656;23.374;2023-08-24T03:33:34;11.07;;;10.03;;
10461;SDS011;5278;42.656;23.374;2023-08-24T03:36:02;10.07;;;9.17;;
10461;SDS011;5278;42.656;23.374;2023-08-24T03:38:29;13.77;;;10.33;;
10461;SDS011;5278;42.656;23.374;2023-08-24T03:40:59;12.23;;;9.87;;
10461;SDS011;5278;42.656;23.374;2023-08-24T03:43:30;12.10;;;10.20;;
10461;SDS011;5278;42.656;23.374;2023-08-24T03:45:59;10.53;;;9.53;;
10461;SDS011;5278;42.656;23.374;2023-08-24T03:48:26;13.07;;;10.40;;
10461;SDS011;5278;42.656;23.374;2023-08-24T03:50:53;13.50;;;10.33;;
10461;SDS011;5278;42.656;23.374;2023-08-24T03:53:22;10.97;;;9.80;;
10461;SDS011;5278;42.656;23.374;2023-08-24T03:55:49;11.37;;;10.20;;
10461;SDS011;5278;42.656;23.374;2023-08-24T03:58:17;12.60;;;10.83;;
10461;SDS011;5278;42.656;23.374;2023-08-24T04:00:45;11.70;;;10.50;;
10461;SDS011;5278;42.656;23.374;2023-08-24T04:03:15;10.90;;;9.90;;
10461;SDS011;5278;42.656;23.374;2023-08-24T04:05:42;12.03;;;10.83;;
10461;SDS011;5278;42.656;23.374;2023-08-24T04:08:09;13.63;;;11.03;;
10461;SDS011;5278;42.656;23.374;2023-08-24T04:10:37;12.93;;;10.80;;
10461;SDS011;5278;42.656;23.374;2023-08-24T04:13:04;12.17;;;10.83;;
10461;SDS011;5278;42.656;23.374;2023-08-24T04:15:31;12.43;;;11.03;;
10461;SDS011;5278;42.656;23.374;2023-08-24T04:18:01;12.40;;;11.13;;
10461;SDS011;5278;42.656;23.374;2023-08-24T04:20:28;12.93;;;11.17;;
10461;SDS011;5278;42.656;23.374;2023-08-24T04:22:55;13.37;;;11.47;;
10461;SDS011;5278;42.656;23.374;2023-08-24T04:25:22;13.97;;;12.00;;
10461;SDS011;5278;42.656;23.374;2023-08-24T04:27:50;12.50;;;11.23;;
10461;SDS011;5278;42.656;23.374;2023-08-24T04:30:16;12.80;;;11.53;;
10461;SDS011;5278;42.656;23.374;2023-08-24T04:32:44;14.63;;;11.93;;
10461;SDS011;5278;42.656;23.374;2023-08-24T04:35:13;12.23;;;11.00;;
10461;SDS011;5278;42.656;23.374;2023-08-24T04:37:41;13.63;;;11.77;;
10461;SDS011;5278;42.656;23.374;2023-08-24T04:40:09;12.70;;;10.90;;
10461;SDS011;5278;42.656;23.374;2023-08-24T04:42:37;11.97;;;10.77;;
10461;SDS011;5278;42.656;23.374;2023-08-24T04:45:04;13.23;;;11.33;;
10461;SDS011;5278;42.656;23.374;2023-08-24T04:47:32;13.67;;;11.33;;
10461;SDS011;5278;42.656;23.374;2023-08-24T04:50:01;15.03;;;12.40;;
10461;SDS011;5278;42.656;23.374;2023-08-24T04:52:29;13.80;;;11.30;;
10461;SDS011;5278;42.656;23.374;2023-08-24T04:54:56;13.57;;;12.17;;
10461;SDS011;5278;42.656;23.374;2023-08-24T04:57:23;13.73;;;11.90;;
10461;SDS011;5278;42.656;23.374;2023-08-24T04:59:52;15.47;;;11.83;;
10461;SDS011;5278;42.656;23.374;2023-08-24T05:02:20;13.10;;;11.60;;
10461;SDS011;5278;42.656;23.374;2023-08-24T05:04:47;12.17;;;10.93;;
10461;SDS011;5278;42.656;23.374;2023-08-24T05:07:14;12.50;;;11.20;;
10461;SDS011;5278;42.656;23.374;2023-08-24T05:09:42;12.57;;;10.63;;
10461;SDS011;5278;42.656;23.374;2023-08-24T05:12:09;12.27;;;10.23;;
10461;SDS011;5278;42.656;23.374;2023-08-24T05:14:36;14.77;;;11.20;;
10461;SDS011;5278;42.656;23.374;2023-08-24T05:17:03;12.93;;;11.63;;
10461;SDS011;5278;42.656;23.374;2023-08-24T05:19:30;12.80;;;11.53;;
10461;SDS011;5278;42.656;23.374;2023-08-24T05:21:58;12.87;;;11.63;;
10461;SDS011;5278;42.656;23.374;2023-08-24T05:24:25;13.80;;;10.67;;
10461;SDS011;5278;42.656;23.374;2023-08-24T05:26:54;12.70;;;11.23;;
10461;SDS011;5278;42.656;23.374;2023-08-24T05:29:21;12.87;;;11.60;;
10461;SDS011;5278;42.656;23.374;2023-08-24T05:31:47;13.13;;;11.17;;
10461;SDS011;5278;42.656;23.374;2023-08-24T05:34:14;11.80;;;10.63;;
10461;SDS011;5278;42.656;23.374;2023-08-24T05:36:41;12.50;;;11.03;;
10461;SDS011;5278;42.656;23.374;2023-08-24T05:39:09;14.83;;;11.20;;
10461;SDS011;5278;42.656;23.374;2023-08-24T05:41:38;12.57;;;10.07;;
10461;SDS011;5278;42.656;23.374;2023-08-24T05:44:06;11.57;;;10.30;;
10461;SDS011;5278;42.656;23.374;2023-08-24T05:46:33;12.00;;;9.83;;
10461;SDS011;5278;42.656;23.374;2023-08-24T05:49:00;11.10;;;10.00;;
10461;SDS011;5278;42.656;23.374;2023-08-24T05:51:27;11.13;;;10.07;;
10461;SDS011;5278;42.656;23.374;2023-08-24T05:53:54;12.63;;;10.20;;
10461;SDS011;5278;42.656;23.374;2023-08-24T05:56:23;11.00;;;9.90;;
10461;SDS011;5278;42.656;23.374;2023-08-24T05:58:50;10.93;;;9.83;;
10461;SDS011;5278;42.656;23.374;2023-08-24T06:01:19;12.03;;;10.17;;
10461;SDS011;5278;42.656;23.374;2023-08-24T06:03:46;11.60;;;10.13;;
10461;SDS011;5278;42.656;23.374;2023-08-24T06:06:13;12.20;;;10.70;;
10461;SDS011;5278;42.656;23.374;2023-08-24T06:08:40;12.83;;;11.47;;
10461;SDS011;5278;42.656;23.374;2023-08-24T06:11:07;11.37;;;10.27;;
10461;SDS011;5278;42.656;23.374;2023-08-24T06:13:33;12.47;;;10.70;;
10461;SDS011;5278;42.656;23.374;2023-08-24T06:16:00;12.73;;;10.80;;
10461;SDS011;5278;42.656;23.374;2023-08-24T06:18:29;12.63;;;10.57;;
10461;SDS011;5278;42.656;23.374;2023-08-24T06:20:57;13.50;;;12.10;;
10461;SDS011;5278;42.656;23.374;2023-08-24T06:23:25;13.03;;;11.73;;
10461;SDS011;5278;42.656;23.374;2023-08-24T06:25:53;13.63;;;12.00;;
10461;SDS011;5278;42.656;23.374;2023-08-24T06:28:20;14.70;;;11.10;;
10461;SDS011;5278;42.656;23.374;2023-08-24T06:30:48;15.07;;;12.47;;
10461;SDS011;5278;42.656;23.374;2023-08-24T06:33:16;13.53;;;12.07;;
10461;SDS011;5278;42.656;23.374;2023-08-24T06:35:45;18.73;;;14.17;;
10461;SDS011;5278;42.656;23.374;2023-08-24T06:38:12;12.17;;;10.93;;
10461;SDS011;5278;42.656;23.374;2023-08-24T06:40:40;16.20;;;13.57;;
10461;SDS011;5278;42.656;23.374;2023-08-24T06:43:06;17.90;;;14.23;;
10461;SDS011;5278;42.656;23.374;2023-08-24T06:45:33;15.00;;;13.57;;
10461;SDS011;5278;42.656;23.374;2023-08-24T06:48:01;14.23;;;12.83;;
10461;SDS011;5278;42.656;23.374;2023-08-24T06:50:28;18.08;;;14.25;;
10461;SDS011;5278;42.656;23.374;2023-08-24T06:52:57;15.80;;;12.98;;
10461;SDS011;5278;42.656;23.374;2023-08-24T06:55:24;14.25;;;12.75;;
10461;SDS011;5278;42.656;23.374;2023-08-24T06:57:53;16.83;;;13.80;;
10461;SDS011;5278;42.656;23.374;2023-08-24T07:00:20;16.75;;;13.18;;
10461;SDS011;5278;42.656;23.374;2023-08-24T07:02:48;16.27;;;13.18;;
10461;SDS011;5278;42.656;23.374;2023-08-24T07:05:16;15.73;;;13.80;;
10461;SDS011;5278;42.656;23.374;2023-08-24T07:07:45;29.52;;;15.93;;
10461;SDS011;5278;42.656;23.374;2023-08-24T07:10:13;15.55;;;13.05;;
10461;SDS011;5278;42.656;23.374;2023-08-24T07:12:40;16.30;;;14.77;;
10461;SDS011;5278;42.656;23.374;2023-08-24T07:15:10;14.98;;;13.38;;
10461;SDS011;5278;42.656;23.374;2023-08-24T07:17:37;17.38;;;13.32;;
10461;SDS011;5278;42.656;23.374;2023-08-24T07:20:05;16.55;;;14.35;;
10461;SDS011;5278;42.656;23.374;2023-08-24T07:22:34;20.17;;;16.80;;
10461;SDS011;5278;42.656;23.374;2023-08-24T07:25:01;15.45;;;13.52;;
10461;SDS011;5278;42.656;23.374;2023-08-24T07:27:31;14.50;;;13.00;;
10461;SDS011;5278;42.656;23.374;2023-08-24T07:29:58;16.45;;;13.55;;
10461;SDS011;5278;42.656;23.374;2023-08-24T07:32:25;16.17;;;14.32;;
10461;SDS011;5278;42.656;23.374;2023-08-24T07:34:53;17.85;;;14.23;;
10461;SDS011;5278;42.656;23.374;2023-08-24T07:37:22;14.25;;;12.85;;
10461;SDS011;5278;42.656;23.374;2023-08-24T07:39:49;18.92;;;14.10;;
10461;SDS011;5278;42.656;23.374;2023-08-24T07:42:19;17.60;;;14.88;;
10461;SDS011;5278;42.656;23.374;2023-08-24T07:44:48;16.02;;;12.93;;
10461;SDS011;5278;42.656;23.374;2023-08-24T07:47:15;14.45;;;12.05;;
10461;SDS011;5278;42.656;23.374;2023-08-24T07:49:42;13.52;;;12.23;;
10461;SDS011;5278;42.656;23.374;2023-08-24T07:52:09;13.25;;;11.45;;
10461;SDS011;5278;42.656;23.374;2023-08-24T07:54:37;14.45;;;11.95;;
10461;SDS011;5278;42.656;23.374;2023-08-24T07:57:04;12.75;;;11.55;;
10461;SDS011;5278;42.656;23.374;2023-08-24T07:59:31;14.00;;;11.60;;
10461;SDS011;5278;42.656;23.374;2023-08-24T08:02:00;12.40;;;11.20;;
10461;SDS011;5278;42.656;23.374;2023-08-24T08:04:27;14.07;;;10.90;;
10461;SDS011;5278;42.656;23.374;2023-08-24T08:06:54;13.25;;;11.98;;
10461;SDS011;5278;42.656;23.374;2023-08-24T08:09:22;13.68;;;12.35;;
10461;SDS011;5278;42.656;23.374;2023-08-24T08:11:49;12.07;;;10.82;;
10461;SDS011;5278;42.656;23.374;2023-08-24T08:14:16;12.93;;;11.32;;
10461;SDS011;5278;42.656;23.374;2023-08-24T08:16:45;12.32;;;11.23;;
10461;SDS011;5278;42.656;23.374;2023-08-24T08:19:15;13.73;;;12.25;;
10461;SDS011;5278;42.656;23.374;2023-08-24T08:21:44;13.98;;;11.85;;
10461;SDS011;5278;42.656;23.374;2023-08-24T08:24:11;13.55;;;12.20;;
10461;SDS011;5278;42.656;23.374;2023-08-24T08:26:38;12.25;;;11.15;;
10461;SDS011;5278;42.656;23.374;2023-08-24T08:29:04;13.90;;;11.25;;
10461;SDS011;5278;42.656;23.374;2023-08-24T08:31:32;12.38;;;11.27;;
10461;SDS011;5278;42.656;23.374;2023-08-24T08:33:59;13.98;;;12.70;;
10461;SDS011;5278;42.656;23.374;2023-08-24T08:36:27;11.75;;;10.63;;
10461;SDS011;5278;42.656;23.374;2023-08-24T08:38:54;14.80;;;13.25;;
10461;SDS011;5278;42.656;23.374;2023-08-24T08:41:21;11.52;;;10.35;;
10461;SDS011;5278;42.656;23.374;2023-08-24T08:43:50;11.95;;;10.65;;
10461;SDS011;5278;42.656;23.374;2023-08-24T08:46:17;10.32;;;9.43;;
10461;SDS011;5278;42.656;23.374;2023-08-24T08:48:44;10.82;;;9.73;;
10461;SDS011;5278;42.656;23.374;2023-08-24T08:51:14;11.40;;;10.40;;
10461;SDS011;5278;42.656;23.374;2023-08-24T08:53:43;12.18;;;11.07;;
10461;SDS011;5278;42.656;23.374;2023-08-24T08:56:10;11.25;;;9.90;;
10461;SDS011;5278;42.656;23.374;2023-08-24T08:58:37;10.85;;;9.98;;
10461;SDS011;5278;42.656;23.374;2023-08-24T09:01:08;11.38;;;10.27;;
10461;SDS011;5278;42.656;23.374;2023-08-24T09:03:39;13.07;;;11.50;;
10461;SDS011;5278;42.656;23.374;2023-08-24T09:06:06;11.45;;;10.35;;
10461;SDS011;5278;42.656;23.374;2023-08-24T09:08:33;11.43;;;10.27;;
10461;SDS011;5278;42.656;23.374;2023-08-24T09:11:01;13.75;;;12.43;;
10461;SDS011;5278;42.656;23.374;2023-08-24T09:13:29;11.73;;;10.82;;
10461;SDS011;5278;42.656;23.374;2023-08-24T09:16:02;13.65;;;12.02;;
10461;SDS011;5278;42.656;23.374;2023-08-24T09:18:34;11.43;;;10.32;;
10461;SDS011;5278;42.656;23.374;2023-08-24T09:21:07;11.50;;;10.60;;
10461;SDS011;5278;42.656;23.374;2023-08-24T09:23:34;12.77;;;11.57;;
10461;SDS011;5278;42.656;23.374;2023-08-24T09:26:03;12.27;;;11.18;;
10461;SDS011;5278;42.656;23.374;2023-08-24T09:28:31;13.77;;;12.77;;
10461;SDS011;5278;42.656;23.374;2023-08-24T09:31:00;14.70;;;13.25;;
10461;SDS011;5278;42.656;23.374;2023-08-24T09:33:27;15.75;;;14.20;;
10461;SDS011;5278;42.656;23.374;2023-08-24T09:35:55;13.63;;;12.23;;
10461;SDS011;5278;42.656;23.374;2023-08-24T09:38:28;17.30;;;15.70;;
10461;SDS011;5278;42.656;23.374;2023-08-24T09:40:57;15.45;;;13.63;;
10461;SDS011;5278;42.656;23.374;2023-08-24T09:43:25;13.05;;;11.77;;
10461;SDS011;5278;42.656;23.374;2023-08-24T09:45:52;12.57;;;11.38;;
10461;SDS011;5278;42.656;23.374;2023-08-24T09:48:20;11.85;;;10.65;;
10461;SDS011;5278;42.656;23.374;2023-08-24T09:50:48;12.00;;;11.07;;
10461;SDS011;5278;42.656;23.374;2023-08-24T09:53:17;11.93;;;11.02;;
10461;SDS011;5278;42.656;23.374;2023-08-24T09:55:48;13.07;;;11.98;;
10461;SDS011;5278;42.656;23.374;2023-08-24T09:58:20;12.75;;;11.75;;
10461;SDS011;5278;42.656;23.374;2023-08-24T10:00:50;12.02;;;11.13;;
10461;SDS011;5278;42.656;23.374;2023-08-24T10:03:18;11.18;;;10.27;;
10461;SDS011;5278;42.656;23.374;2023-08-24T10:05:50;10.85;;;9.85;;
10461;SDS011;5278;42.656;23.374;2023-08-24T10:08:20;11.00;;;10.15;;
10461;SDS011;5278;42.656;23.374;2023-08-24T10:10:49;11.35;;;10.38;;
10461;SDS011;5278;42.656;23.374;2023-08-24T10:13:21;9.75;;;8.95;;
10461;SDS011;5278;42.656;23.374;2023-08-24T10:15:54;11.60;;;10.48;;
10461;SDS011;5278;42.656;23.374;2023-08-24T10:18:22;11.85;;;10.75;;
10461;SDS011;5278;42.656;23.374;2023-08-24T10:20:51;12.27;;;11.18;;
10461;SDS011;5278;42.656;23.374;2023-08-24T10:23:19;12.05;;;10.18;;
10461;SDS011;5278;42.656;23.374;2023-08-24T10:25:47;10.73;;;9.77;;
10461;SDS011;5278;42.656;23.374;2023-08-24T10:28:17;11.05;;;10.05;;
10461;SDS011;5278;42.656;23.374;2023-08-24T10:30:46;11.40;;;10.50;;
10461;SDS011;5278;42.656;23.374;2023-08-24T10:33:16;11.13;;;10.05;;
10461;SDS011;5278;42.656;23.374;2023-08-24T10:35:43;10.35;;;9.55;;
10461;SDS011;5278;42.656;23.374;2023-08-24T10:38:22;11.90;;;10.35;;
10461;SDS011;5278;42.656;23.374;2023-08-24T10:40:51;13.60;;;10.85;;
10461;SDS011;5278;42.656;23.374;2023-08-24T10:43:18;10.50;;;9.68;;
10461;SDS011;5278;42.656;23.374;2023-08-24T10:45:55;12.88;;;10.18;;
10461;SDS011;5278;42.656;23.374;2023-08-24T10:48:24;11.15;;;10.13;;
10461;SDS011;5278;42.656;23.374;2023-08-24T10:53:52;10.95;;;9.95;;
10461;SDS011;5278;42.656;23.374;2023-08-24T10:56:21;14.10;;;12.48;;
10461;SDS011;5278;42.656;23.374;2023-08-24T10:59:09;15.02;;;13.60;;
10461;SDS011;5278;42.656;23.374;2023-08-24T11:01:38;14.52;;;13.07;;
10461;SDS011;5278;42.656;23.374;2023-08-24T11:04:06;11.52;;;10.63;;
10461;SDS011;5278;42.656;23.374;2023-08-24T11:06:34;13.13;;;12.00;;
10461;SDS011;5278;42.656;23.374;2023-08-24T11:09:05;12.40;;;11.20;;
10461;SDS011;5278;42.656;23.374;2023-08-24T11:11:38;13.13;;;11.82;;
10461;SDS011;5278;42.656;23.374;2023-08-24T11:14:15;15.25;;;11.10;;
10461;SDS011;5278;42.656;23.374;2023-08-24T11:16:45;11.95;;;10.75;;
10461;SDS011;5278;42.656;23.374;2023-08-24T11:19:17;12.07;;;10.88;;
10461;SDS011;5278;42.656;23.374;2023-08-24T11:21:45;13.38;;;12.05;;
10461;SDS011;5278;42.656;23.374;2023-08-24T11:24:14;15.40;;;12.32;;
10461;SDS011;5278;42.656;23.374;2023-08-24T11:26:42;12.65;;;11.45;;
10461;SDS011;5278;42.656;23.374;2023-08-24T11:29:11;11.88;;;10.63;;
10461;SDS011;5278;42.656;23.374;2023-08-24T11:31:38;12.13;;;11.05;;
10461;SDS011;5278;42.656;23.374;2023-08-24T11:34:06;15.77;;;14.27;;
10461;SDS011;5278;42.656;23.374;2023-08-24T11:36:42;13.38;;;11.32;;
10461;SDS011;5278;42.656;23.374;2023-08-24T11:39:14;12.45;;;11.15;;
10461;SDS011;5278;42.656;23.374;2023-08-24T11:41:42;12.88;;;11.57;;
10461;SDS011;5278;42.656;23.374;2023-08-24T11:44:11;12.45;;;11.35;;
10461;SDS011;5278;42.656;23.374;2023-08-24T11:46:38;13.50;;;12.20;;
10461;SDS011;5278;42.656;23.374;2023-08-24T11:49:06;13.30;;;12.18;;
10461;SDS011;5278;42.656;23.374;2023-08-24T11:51:33;12.98;;;11.68;;
10461;SDS011;5278;42.656;23.374;2023-08-24T11:54:02;14.13;;;12.60;;
10461;SDS011;5278;42.656;23.374;2023-08-24T11:56:29;12.82;;;11.63;;
10461;SDS011;5278;42.656;23.374;2023-08-24T11:58:56;12.55;;;11.25;;
10461;SDS011;5278;42.656;23.374;2023-08-24T12:01:23;11.75;;;10.63;;
10461;SDS011;5278;42.656;23.374;2023-08-24T12:03:52;13.10;;;11.80;;
10461;SDS011;5278;42.656;23.374;2023-08-24T12:06:19;12.18;;;11.02;;
10461;SDS011;5278;42.656;23.374;2023-08-24T12:08:46;17.20;;;10.98;;
10461;SDS011;5278;42.656;23.374;2023-08-24T12:11:17;12.50;;;11.38;;
10461;SDS011;5278;42.656;23.374;2023-08-24T12:13:51;12.98;;;11.70;;
10461;SDS011;5278;42.656;23.374;2023-08-24T12:16:20;12.55;;;11.25;;
10461;SDS011;5278;42.656;23.374;2023-08-24T12:18:51;13.77;;;12.45;;
10461;SDS011;5278;42.656;23.374;2023-08-24T12:21:19;13.07;;;11.68;;
10461;SDS011;5278;42.656;23.374;2023-08-24T12:23:57;11.95;;;10.73;;
10461;SDS011;5278;42.656;23.374;2023-08-24T12:26:26;11.65;;;10.10;;
10461;SDS011;5278;42.656;23.374;2023-08-24T12:28:55;11.68;;;10.57;;
10461;SDS011;5278;42.656;23.374;2023-08-24T12:31:29;12.77;;;11.63;;
10461;SDS011;5278;42.656;23.374;2023-08-24T12:34:00;11.57;;;10.33;;
10461;SDS011;5278;42.656;23.374;2023-08-24T12:36:29;12.82;;;11.43;;
10461;SDS011;5278;42.656;23.374;2023-08-24T12:38:55;11.47;;;10.27;;
10461;SDS011;5278;42.656;23.374;2023-08-24T12:41:23;12.33;;;10.80;;
10461;SDS011;5278;42.656;23.374;2023-08-24T12:43:52;13.07;;;10.23;;
10461;SDS011;5278;42.656;23.374;2023-08-24T12:46:19;12.33;;;11.03;;
10461;SDS011;5278;42.656;23.374;2023-08-24T12:48:46;11.63;;;10.48;;
10461;SDS011;5278;42.656;23.374;2023-08-24T12:51:13;11.55;;;9.85;;
10461;SDS011;5278;42.656;23.374;2023-08-24T12:53:42;11.88;;;10.65;;
10461;SDS011;5278;42.656;23.374;2023-08-24T12:56:09;11.75;;;10.65;;
10461;SDS011;5278;42.656;23.374;2023-08-24T12:58:36;11.25;;;10.23;;
10461;SDS011;5278;42.656;23.374;2023-08-24T13:01:04;12.20;;;10.90;;
10461;SDS011;5278;42.656;23.374;2023-08-24T13:03:31;12.35;;;10.52;;
10461;SDS011;5278;42.656;23.374;2023-08-24T13:06:02;13.38;;;11.05;;
10461;SDS011;5278;42.656;23.374;2023-08-24T13:08:29;14.82;;;12.25;;
10461;SDS011;5278;42.656;23.374;2023-08-24T13:10:56;16.20;;;12.13;;
10461;SDS011;5278;42.656;23.374;2023-08-24T13:13:24;17.67;;;11.73;;
10461;SDS011;5278;42.656;23.374;2023-08-24T13:15:51;14.68;;;10.85;;
10461;SDS011;5278;42.656;23.374;2023-08-24T13:18:20;23.17;;;16.33;;
10461;SDS011;5278;42.656;23.374;2023-08-24T13:20:47;12.50;;;10.80;;
10461;SDS011;5278;42.656;23.374;2023-08-24T13:23:13;13.93;;;11.50;;
10461;SDS011;5278;42.656;23.374;2023-08-24T13:25:40;15.67;;;11.30;;
10461;SDS011;5278;42.656;23.374;2023-08-24T13:28:06;12.07;;;10.87;;
10461;SDS011;5278;42.656;23.374;2023-08-24T13:30:33;12.63;;;11.37;;
10461;SDS011;5278;42.656;23.374;2023-08-24T13:33:00;14.57;;;11.03;;
10461;SDS011;5278;42.656;23.374;2023-08-24T13:35:28;13.00;;;11.60;;
10461;SDS011;5278;42.656;23.374;2023-08-24T13:37:54;16.07;;;12.33;;
10461;SDS011;5278;42.656;23.374;2023-08-24T13:40:21;13.03;;;11.63;;
10461;SDS011;5278;42.656;23.374;2023-08-24T13:42:48;12.47;;;11.37;;
10461;SDS011;5278;42.656;23.374;2023-08-24T13:45:14;12.50;;;11.30;;
10461;SDS011;5278;42.656;23.374;2023-08-24T13:47:41;13.67;;;12.27;;
10461;SDS011;5278;42.656;23.374;2023-08-24T13:50:09;15.43;;;11.85;;
10461;SDS011;5278;42.656;23.374;2023-08-24T13:52:38;11.57;;;10.47;;
10461;SDS011;5278;42.656;23.374;2023-08-24T13:55:05;11.27;;;10.27;;
10461;SDS011;5278;42.656;23.374;2023-08-24T13:57:33;11.52;;;10.32;;
10461;SDS011;5278;42.656;23.374;2023-08-24T14:00:01;12.27;;;11.00;;
10461;SDS011;5278;42.656;23.374;2023-08-24T14:02:29;15.35;;;10.65;;
10461;SDS011;5278;42.656;23.374;2023-08-24T14:04:56;12.53;;;11.40;;
10461;SDS011;5278;42.656;23.374;2023-08-24T14:07:23;13.38;;;11.13;;
10461;SDS011;5278;42.656;23.374;2023-08-24T14:09:51;12.90;;;11.52;;
10461;SDS011;5278;42.656;23.374;2023-08-24T14:12:19;12.43;;;11.20;;
10461;SDS011;5278;42.656;23.374;2023-08-24T14:14:45;12.80;;;11.50;;
10461;SDS011;5278;42.656;23.374;2023-08-24T14:17:12;14.18;;;11.70;;
10461;SDS011;5278;42.656;23.374;2023-08-24T14:19:39;12.70;;;11.47;;
10461;SDS011;5278;42.656;23.374;2023-08-24T14:22:06;14.18;;;11.20;;
10461;SDS011;5278;42.656;23.374;2023-08-24T14:24:33;12.47;;;11.17;;
10461;SDS011;5278;42.656;23.374;2023-08-24T14:27:01;12.55;;;10.98;;
10461;SDS011;5278;42.656;23.374;2023-08-24T14:29:28;13.40;;;11.30;;
10461;SDS011;5278;42.656;23.374;2023-08-24T14:31:55;12.50;;;11.27;;
10461;SDS011;5278;42.656;23.374;2023-08-24T14:34:22;13.37;;;11.33;;